Time;durP1;ratioP1;P1;durP2;ratioP2;P2;SDS_P1;SDS_P2;PMS_P1;PMS_P2;Temp;Humidity;BMP_temperature;BMP_pressure;BME280_temperature;BME280_humidity;BME280_pressure;Samples;Min_cycle;Max_cycle;Signal;HPM_P1;HPM_P2
2021/05/25 00:01:40;;;;;;;15.20;6.55;;;14.80;76.00;;;;;;5153281;27;19950;-79
2021/05/25 00:04:06;;;;;;;10.25;6.60;;;14.80;76.70;;;;;;5152994;27;20474;-80
2021/05/25 00:06:36;;;;;;;10.75;6.55;;;14.70;76.90;;;;;;5135770;27;20573;-80
2021/05/25 00:09:04;;;;;;;11.60;7.82;;;14.70;77.20;;;;;;5135446;27;20107;-80
2021/05/25 00:11:30;;;;;;;13.15;7.18;;;14.70;77.30;;;;;;5135796;27;20492;-79
2021/05/25 00:13:56;;;;;;;;;;;14.60;77.50;;;;;;5153409;27;20038;-80
2021/05/25 00:16:22;;;;;;;14.35;6.82;;;14.60;76.70;;;;;;5153072;27;19922;-81
2021/05/25 00:18:49;;;;;;;14.07;7.57;;;14.60;77.50;;;;;;5153063;27;20030;-80
2021/05/25 00:21:15;;;;;;;20.52;8.20;;;14.60;78.50;;;;;;5170913;27;20083;-80
2021/05/25 00:23:41;;;;;;;12.82;7.25;;;14.60;77.10;;;;;;5139230;27;20050;-80
2021/05/25 00:26:07;;;;;;;;;;;14.70;77.70;;;;;;5157225;27;20031;-80
2021/05/25 00:28:34;;;;;;;10.23;6.53;;;14.70;76.70;;;;;;5139308;27;19915;-80
2021/05/25 00:31:00;;;;;;;;;;;14.70;77.20;;;;;;5139628;27;20059;-81
2021/05/25 00:33:26;;;;;;;9.68;6.53;;;14.70;76.30;;;;;;5156641;27;19915;-81
2021/05/25 00:35:54;;;;;;;;;;;14.70;76.90;;;;;;5157279;27;20394;-80
2021/05/25 00:38:21;;;;;;;9.93;6.03;;;14.70;76.20;;;;;;5156457;27;19919;-81
2021/05/25 00:40:48;;;;;;;12.05;5.97;;;14.60;76.30;;;;;;5139090;27;20031;-80
2021/05/25 00:43:14;;;;;;;11.50;5.95;;;14.70;77.10;;;;;;5156456;27;20371;-80
2021/05/25 00:45:41;;;;;;;;;;;14.60;77.10;;;;;;5156947;27;20035;-80
2021/05/25 00:48:08;;;;;;;10.02;6.07;;;14.60;76.90;;;;;;5138992;27;20195;-81
2021/05/25 00:50:34;;;;;;;13.00;6.43;;;14.60;76.70;;;;;;5156194;27;20067;-80
2021/05/25 00:53:03;;;;;;;12.10;6.22;;;14.60;76.80;;;;;;5138519;27;20026;-80
2021/05/25 00:55:33;;;;;;;12.10;6.50;;;14.60;77.30;;;;;;5138911;27;20023;-80
2021/05/25 00:58:04;;;;;;;12.07;6.60;;;14.60;77.30;;;;;;5155781;27;20030;-80
2021/05/25 01:00:49;;;;;;;15.32;6.03;;;14.60;77.40;;;;;;5156218;27;20557;-80
2021/05/25 01:03:37;;;;;;;9.70;6.30;;;14.60;77.40;;;;;;5138800;27;20378;-81
2021/05/25 01:06:03;;;;;;;9.38;5.90;;;14.60;77.20;;;;;;5138651;27;20034;-80
2021/05/25 01:08:29;;;;;;;10.38;6.22;;;14.60;76.80;;;;;;5138361;27;20035;-80
2021/05/25 01:11:02;;;;;;;;;;;14.50;77.80;;;;;;5138988;27;20406;-80
2021/05/25 01:13:30;;;;;;;14.20;6.47;;;14.50;77.80;;;;;;5156010;27;19915;-81
2021/05/25 01:15:57;;;;;;;11.23;6.00;;;14.40;77.50;;;;;;5155954;27;20084;-80
2021/05/25 01:21:12;;;;;;;12.60;5.78;;;14.40;78.30;;;;;;5141464;27;20035;-81
2021/05/25 01:23:39;;;;;;;8.77;5.70;;;14.40;78.30;;;;;;5155614;27;20101;-79
2021/05/25 01:26:07;;;;;;;8.43;5.32;;;14.40;77.90;;;;;;5156910;27;20106;-81
2021/05/25 01:28:35;;;;;;;11.18;6.10;;;14.40;78.50;;;;;;5155643;27;20114;-81
2021/05/25 01:31:04;;;;;;;10.85;5.85;;;14.40;78.60;;;;;;5155576;27;20041;-80
2021/05/25 01:33:35;;;;;;;10.57;5.95;;;14.40;78.60;;;;;;5155206;27;20072;-81
2021/05/25 01:36:02;;;;;;;8.77;5.60;;;14.30;78.50;;;;;;5156658;27;20035;-79
2021/05/25 01:38:29;;;;;;;10.80;6.40;;;14.30;78.60;;;;;;5155286;27;20027;-81
2021/05/25 01:40:57;;;;;;;12.20;6.35;;;14.30;78.40;;;;;;5155222;27;20307;-80
2021/05/25 01:43:24;;;;;;;15.02;7.68;;;14.30;79.10;;;;;;5172313;27;20031;-80
2021/05/25 01:45:50;;;;;;;14.38;6.57;;;14.30;78.90;;;;;;5155335;27;20031;-80
2021/05/25 01:48:17;;;;;;;11.65;6.40;;;14.30;78.30;;;;;;5155312;27;20490;-80
2021/05/25 01:50:45;;;;;;;9.60;5.72;;;14.40;78.60;;;;;;5138019;27;20041;-81
2021/05/25 01:53:31;;;;;;;9.60;5.38;;;14.40;78.40;;;;;;5154880;27;20026;-81
2021/05/25 01:55:59;;;;;;;13.02;5.68;;;14.40;78.50;;;;;;5137826;27;20035;-81
2021/05/25 01:58:49;;;;;;;11.63;6.32;;;14.40;78.20;;;;;;5137530;27;20035;-81
2021/05/25 02:01:15;;;;;;;9.02;5.55;;;14.40;78.20;;;;;;5154823;27;20095;-80
2021/05/25 02:03:42;;;;;;;13.40;5.90;;;14.40;78.20;;;;;;5137482;27;20035;-80
2021/05/25 02:06:10;;;;;;;9.73;5.82;;;14.40;78.00;;;;;;5154626;27;20094;-80
2021/05/25 02:08:39;;;;;;;11.65;5.97;;;14.40;78.10;;;;;;5137449;27;20483;-80
2021/05/25 02:11:08;;;;;;;11.93;5.53;;;14.40;78.20;;;;;;5137541;27;20054;-81
2021/05/25 02:13:38;;;;;;;8.60;5.30;;;14.30;78.30;;;;;;5137510;27;20042;-80
2021/05/25 02:16:26;;;;;;;10.50;5.57;;;14.20;78.40;;;;;;5154494;27;20039;-80
2021/05/25 02:18:53;;;;;;;10.98;6.00;;;14.20;78.80;;;;;;5137219;27;20035;-80
2021/05/25 02:21:20;;;;;;;;;;;14.20;78.80;;;;;;5137576;27;20076;-80
2021/05/25 02:23:49;;;;;;;10.75;6.22;;;14.20;78.50;;;;;;5154525;27;20251;-80
2021/05/25 02:26:16;;;;;;;10.77;5.88;;;14.20;78.70;;;;;;5137372;27;20478;-80
2021/05/25 02:28:43;;;;;;;16.42;6.60;;;14.20;78.80;;;;;;5154073;27;20427;-80
2021/05/25 02:31:11;;;;;;;10.80;5.93;;;14.20;78.70;;;;;;5171675;27;20402;-79
2021/05/25 02:33:37;;;;;;;12.23;5.53;;;14.20;77.90;;;;;;5153915;27;20023;-79
2021/05/25 02:36:05;;;;;;;9.98;5.45;;;14.30;78.60;;;;;;5154252;27;20042;-79
2021/05/25 02:38:32;;;;;;;10.43;6.10;;;14.20;78.30;;;;;;5153858;27;20073;-80
2021/05/25 02:40:59;;;;;;;8.77;5.20;;;14.20;77.90;;;;;;5136489;27;20069;-80
2021/05/25 02:43:28;;;;;;;11.10;6.10;;;14.10;78.60;;;;;;5136477;27;20058;-80
2021/05/25 02:45:55;;;;;;;9.85;5.80;;;14.00;78.60;;;;;;5154604;27;20031;-80
2021/05/25 02:48:22;;;;;;;11.35;6.20;;;14.00;78.80;;;;;;5153889;27;20099;-79
2021/05/25 02:50:50;;;;;;;12.30;5.75;;;13.90;78.30;;;;;;5155290;27;20034;-80
2021/05/25 02:53:18;;;;;;;11.07;6.15;;;13.90;78.90;;;;;;5153980;27;20031;-79
2021/05/25 02:55:44;;;;;;;10.93;6.78;;;13.80;78.90;;;;;;5153784;27;20039;-80
2021/05/25 02:58:11;;;;;;;9.82;5.95;;;13.80;79.00;;;;;;5136415;27;20030;-80
2021/05/25 03:00:57;;;;;;;11.57;5.65;;;13.80;79.00;;;;;;5170981;27;20062;-79
2021/05/25 03:03:23;;;;;;;10.02;5.35;;;13.70;79.00;;;;;;5154881;27;20034;-80
2021/05/25 03:05:52;;;;;;;;;;;13.70;79.00;;;;;;5154554;27;20077;-80
2021/05/25 03:08:18;;;;;;;19.13;9.63;;;13.70;78.10;;;;;;5153327;27;19922;-80
2021/05/25 03:10:48;;;;;;;18.02;9.88;;;13.70;77.90;;;;;;5136144;27;20034;-80
2021/05/25 03:13:16;;;;;;;19.80;9.98;;;13.80;78.50;;;;;;5153489;27;20030;-80
2021/05/25 03:15:46;;;;;;;20.27;8.75;;;13.80;78.40;;;;;;5153765;27;20027;-79
2021/05/25 03:18:13;;;;;;;14.15;9.35;;;13.80;78.40;;;;;;5136178;27;20393;-80
2021/05/25 03:20:43;;;;;;;13.55;6.53;;;13.80;78.40;;;;;;5136340;27;20031;-80
2021/05/25 03:23:09;;;;;;;12.02;5.97;;;13.70;78.50;;;;;;5153489;27;20062;-80
2021/05/25 03:25:36;;;;;;;11.35;6.18;;;13.70;78.00;;;;;;5154746;27;20146;-80
2021/05/25 03:28:03;;;;;;;10.20;6.30;;;13.70;78.00;;;;;;5154449;27;20386;-80
2021/05/25 03:30:30;;;;;;;14.75;6.90;;;13.80;78.40;;;;;;5153321;27;20114;-79
2021/05/25 03:32:58;;;;;;;10.77;6.25;;;13.80;78.40;;;;;;5153277;27;20035;-80
2021/05/25 03:35:26;;;;;;;11.35;6.47;;;13.80;78.30;;;;;;5153467;27;20058;-79
2021/05/25 03:37:53;;;;;;;11.48;7.05;;;13.80;78.30;;;;;;5153245;27;20023;-80
2021/05/25 03:40:20;;;;;;;15.70;9.43;;;13.80;77.80;;;;;;5153360;27;20065;-80
2021/05/25 03:43:06;;;;;;;14.23;8.93;;;13.80;78.30;;;;;;5136039;27;20121;-80
2021/05/25 03:45:32;;;;;;;16.90;10.30;;;13.80;78.40;;;;;;5153144;27;20390;-80
2021/05/25 03:47:58;;;;;;;;;;;13.80;78.20;;;;;;5153801;27;20030;-80
2021/05/25 03:50:25;;;;;;;16.10;9.10;;;13.90;77.50;;;;;;5153337;27;19919;-80
2021/05/25 03:52:54;;;;;;;12.45;6.85;;;13.90;78.20;;;;;;5135973;27;20023;-80
2021/05/25 04:00:57;;;;;;;11.93;7.47;;;13.90;78.30;;;;;;5157335;27;20179;-80
2021/05/25 04:03:23;;;;;;;13.95;9.05;;;13.90;78.30;;;;;;5139544;27;20033;-80
2021/05/25 04:05:51;;;;;;;13.20;7.80;;;13.90;77.90;;;;;;5157414;27;20092;-79
2021/05/25 04:08:17;;;;;;;14.43;7.47;;;13.90;78.00;;;;;;5156712;27;20514;-80
2021/05/25 04:10:46;;;;;;;17.48;7.53;;;13.90;78.30;;;;;;5139426;27;20037;-80
2021/05/25 04:13:16;;;;;;;12.48;6.70;;;14.00;78.20;;;;;;5156983;27;20026;-81
2021/05/25 04:16:03;;;;;;;14.43;6.72;;;14.00;78.00;;;;;;5157071;27;20026;-81
2021/05/25 04:18:30;;;;;;;;;;;14.10;78.10;;;;;;5158840;27;20529;-80
2021/05/25 04:20:56;;;;;;;16.33;8.10;;;14.10;77.90;;;;;;5156795;27;19919;-79
2021/05/25 04:23:23;;;;;;;13.40;7.95;;;14.20;77.90;;;;;;5157807;27;20071;-80
2021/05/25 04:25:49;;;;;;;12.35;7.07;;;14.20;78.00;;;;;;5156838;27;20374;-80
2021/05/25 04:28:17;;;;;;;13.73;7.18;;;14.20;78.00;;;;;;5156437;27;20033;-80
2021/05/25 04:30:45;;;;;;;19.63;8.00;;;14.30;78.00;;;;;;5156583;27;20031;-80
2021/05/25 04:33:12;;;;;;;14.15;7.45;;;14.40;78.00;;;;;;5156387;27;20033;-80
2021/05/25 04:35:38;;;;;;;14.90;7.40;;;14.40;78.00;;;;;;5139323;27;20031;-79
2021/05/25 04:38:06;;;;;;;14.20;7.63;;;14.50;77.80;;;;;;5138793;27;20058;-80
2021/05/25 04:40:34;;;;;;;13.63;7.35;;;14.50;77.60;;;;;;5139110;27;20052;-80
2021/05/25 04:43:01;;;;;;;22.33;8.00;;;14.60;77.50;;;;;;5156215;27;20023;-80
2021/05/25 04:45:28;;;;;;;18.20;8.05;;;14.60;77.40;;;;;;5138947;27;20033;-80
2021/05/25 04:47:54;;;;;;;14.35;7.65;;;14.70;77.50;;;;;;5156113;27;20038;-79
2021/05/25 04:50:21;;;;;;;13.45;8.38;;;14.70;77.00;;;;;;5173573;27;20117;-79
2021/05/25 04:52:49;;;;;;;14.88;7.45;;;14.80;77.40;;;;;;5138719;27;20451;-80
2021/05/25 04:55:19;;;;;;;15.38;8.80;;;14.80;77.30;;;;;;5155679;27;20367;-79
2021/05/25 04:57:46;;;;;;;16.45;10.00;;;14.80;77.30;;;;;;5156296;27;20031;-80
2021/05/25 05:00:31;;;;;;;13.13;8.35;;;14.80;77.40;;;;;;5138560;27;20382;-80
2021/05/25 05:02:57;;;;;;;12.88;8.45;;;14.90;76.80;;;;;;5156772;27;20038;-80
2021/05/25 05:05:25;;;;;;;15.82;8.50;;;14.90;77.10;;;;;;5157687;27;20027;-79
2021/05/25 05:07:52;;;;;;;12.38;7.30;;;15.00;76.70;;;;;;5155034;27;20057;-80
2021/05/25 05:10:20;;;;;;;10.57;6.80;;;15.10;76.70;;;;;;5173394;27;20030;-79
2021/05/25 05:12:47;;;;;;;12.88;6.40;;;15.10;76.60;;;;;;5138364;27;20087;-80
2021/05/25 05:15:15;;;;;;;10.48;6.60;;;15.20;76.40;;;;;;5173020;27;20604;-80
2021/05/25 05:17:43;;;;;;;9.90;6.18;;;15.20;76.20;;;;;;5155550;27;20038;-79
2021/05/25 05:20:12;;;;;;;13.20;7.68;;;15.40;76.10;;;;;;5138167;27;20030;-80
2021/05/25 05:22:39;;;;;;;12.95;7.07;;;15.40;75.90;;;;;;5155532;27;20456;-80
2021/05/25 05:25:08;;;;;;;10.98;6.25;;;15.50;75.90;;;;;;5138339;27;20158;-81
2021/05/25 05:27:35;;;;;;;11.35;6.40;;;15.60;75.60;;;;;;5155802;27;20083;-81
2021/05/25 05:30:02;;;;;;;11.82;5.90;;;15.60;75.60;;;;;;5155691;27;20035;-81
2021/05/25 05:32:28;;;;;;;10.55;6.20;;;15.70;74.80;;;;;;5155512;27;20058;-81
2021/05/25 05:34:54;;;;;;;12.55;6.13;;;15.80;75.00;;;;;;5155442;27;20034;-80
2021/05/25 05:37:21;;;;;;;8.90;5.43;;;15.80;74.70;;;;;;5155540;27;20100;-81
2021/05/25 05:39:47;;;;;;;13.00;7.40;;;15.90;74.60;;;;;;5137988;27;20039;-80
2021/05/25 05:42:15;;;;;;;12.70;6.93;;;16.00;74.20;;;;;;5138074;27;20031;-81
2021/05/25 05:44:42;;;;;;;14.13;5.70;;;16.00;73.50;;;;;;5155172;27;20027;-81
2021/05/25 05:47:08;;;;;;;14.52;5.85;;;16.00;74.00;;;;;;5155477;27;20497;-81
2021/05/25 05:49:36;;;;;;;12.38;6.38;;;15.90;74.40;;;;;;5156432;27;20466;-81
2021/05/25 05:52:03;;;;;;;12.10;6.35;;;15.90;74.30;;;;;;5137866;27;20035;-80
2021/05/25 05:54:29;;;;;;;9.73;5.40;;;15.90;74.20;;;;;;5156082;27;20034;-82
2021/05/25 05:56:55;;;;;;;;;;;15.90;74.20;;;;;;5138404;27;20060;-82
2021/05/25 05:59:22;;;;;;;11.60;5.78;;;15.90;73.90;;;;;;5137587;27;19919;-80
2021/05/25 06:01:48;;;;;;;9.48;5.57;;;15.90;73.80;;;;;;5137717;27;20030;-81
2021/05/25 06:04:14;;;;;;;11.70;6.80;;;16.00;73.40;;;;;;5156025;27;20092;-81
2021/05/25 06:06:41;;;;;;;9.05;5.25;;;16.00;73.40;;;;;;5137385;27;20042;-80
2021/05/25 06:09:07;;;;;;;10.10;5.38;;;16.00;72.60;;;;;;5154747;27;20562;-81
2021/05/25 06:11:34;;;;;;;9.35;5.93;;;16.10;72.70;;;;;;5137496;27;20436;-80
2021/05/25 06:14:00;;;;;;;9.85;5.75;;;16.10;72.70;;;;;;5154427;27;20030;-80
2021/05/25 06:16:30;;;;;;;11.55;5.32;;;16.20;72.50;;;;;;5155946;27;20031;-79
2021/05/25 06:18:57;;;;;;;9.18;5.57;;;16.30;72.30;;;;;;5153547;27;20034;-80
2021/05/25 06:21:24;;;;;;;8.63;5.05;;;16.30;72.10;;;;;;5154374;27;20035;-80
2021/05/25 06:23:50;;;;;;;;;;;16.40;71.90;;;;;;5156137;27;20034;-81
2021/05/25 06:26:19;;;;;;;24.05;6.22;;;16.50;71.90;;;;;;5136762;27;19919;-80
2021/05/25 06:28:46;;;;;;;10.13;5.15;;;16.50;71.40;;;;;;5154249;27;20385;-79
2021/05/25 06:31:13;;;;;;;10.25;5.57;;;16.60;70.40;;;;;;5136793;27;20125;-80
2021/05/25 06:33:40;;;;;;;10.30;5.50;;;16.70;70.60;;;;;;5154143;27;20083;-79
2021/05/25 06:36:06;;;;;;;9.10;5.00;;;16.70;70.30;;;;;;5154056;27;20069;-79
2021/05/25 06:38:32;;;;;;;10.23;5.32;;;16.80;69.90;;;;;;5153962;27;20035;-80
2021/05/25 06:40:59;;;;;;;12.02;7.07;;;16.90;70.30;;;;;;5155097;27;20030;-79
2021/05/25 06:43:25;;;;;;;9.85;5.75;;;17.00;69.20;;;;;;5153979;27;20031;-79
2021/05/25 06:45:51;;;;;;;;;;;17.00;69.50;;;;;;5154541;27;20071;-79
2021/05/25 06:48:18;;;;;;;10.73;6.35;;;17.00;69.00;;;;;;5153730;27;20005;-80
2021/05/25 06:50:44;;;;;;;14.93;7.75;;;17.20;69.50;;;;;;5136505;27;20038;-79
2021/05/25 06:53:10;;;;;;;12.23;7.85;;;17.30;69.20;;;;;;5153533;27;20023;-80
2021/05/25 06:55:37;;;;;;;11.82;6.18;;;17.40;68.80;;;;;;5136772;27;20038;-81
2021/05/25 06:58:04;;;;;;;10.85;6.32;;;17.60;68.10;;;;;;5136503;27;20054;-81
2021/05/25 07:00:30;;;;;;;11.27;5.47;;;17.70;67.50;;;;;;5154171;27;20041;-79
2021/05/25 07:02:56;;;;;;;;;;;17.80;67.30;;;;;;5154188;27;20027;-79
2021/05/25 07:05:22;;;;;;;12.50;5.70;;;17.90;67.10;;;;;;5153593;27;19926;-79
2021/05/25 07:07:49;;;;;;;9.85;5.75;;;18.00;66.80;;;;;;5153540;27;20043;-80
2021/05/25 07:10:15;;;;;;;9.05;4.93;;;18.20;66.40;;;;;;5155019;27;20074;-80
2021/05/25 07:12:41;;;;;;;11.20;5.03;;;18.40;66.40;;;;;;5154828;27;20272;-79
2021/05/25 07:15:09;;;;;;;10.35;4.68;;;18.50;66.00;;;;;;5153781;27;20031;-80
2021/05/25 07:17:35;;;;;;;10.70;5.30;;;18.60;65.30;;;;;;5153797;27;20117;-80
2021/05/25 07:20:02;;;;;;;10.82;5.72;;;18.70;65.50;;;;;;5154388;27;20069;-80
2021/05/25 07:22:28;;;;;;;9.90;5.25;;;18.70;64.70;;;;;;5153645;27;20552;-80
2021/05/25 07:24:55;;;;;;;9.30;5.50;;;18.80;64.60;;;;;;5153589;27;20035;-80
2021/05/25 07:27:31;;;;;;;9.27;4.38;;;18.90;64.70;;;;;;5136340;27;20054;-80
2021/05/25 07:29:58;;;;;;;13.68;5.10;;;18.90;64.20;;;;;;5136419;27;20045;-82
2021/05/25 07:32:25;;;;;;;12.38;5.30;;;19.00;64.30;;;;;;5157908;27;20035;-81
2021/05/25 07:34:54;;;;;;;7.60;4.85;;;19.20;64.00;;;;;;5140418;27;20451;-80
2021/05/25 07:37:20;;;;;;;8.70;4.72;;;19.30;63.70;;;;;;5140234;27;20096;-80
2021/05/25 07:39:46;;;;;;;8.65;4.75;;;19.40;63.80;;;;;;5140056;27;20041;-80
2021/05/25 07:42:13;;;;;;;10.57;4.97;;;19.40;63.30;;;;;;5157666;27;20398;-80
2021/05/25 07:44:39;;;;;;;7.63;4.07;;;19.50;63.10;;;;;;5140282;27;20055;-81
2021/05/25 07:47:16;;;;;;;9.98;4.57;;;19.50;62.30;;;;;;5140086;27;20037;-81
2021/05/25 07:49:42;;;;;;;9.20;3.95;;;19.70;62.50;;;;;;5157425;27;20037;-81
2021/05/25 07:52:44;;;;;;;7.97;4.00;;;19.70;61.00;;;;;;5157438;27;20043;-82
2021/05/25 07:55:00;;;;;;;7.75;3.83;;;19.80;61.70;;;;;;5151935;27;20042;-81
2021/05/25 07:57:26;;;;;;;7.60;3.72;;;19.80;61.00;;;;;;5140025;27;20038;-80
2021/05/25 07:59:53;;;;;;;8.63;3.40;;;20.00;60.80;;;;;;5158680;27;20035;-80
2021/05/25 08:02:20;;;;;;;7.07;3.35;;;20.20;60.80;;;;;;5139701;27;20055;-79
2021/05/25 08:04:46;;;;;;;6.80;3.28;;;20.20;59.80;;;;;;5174467;27;20086;-80
2021/05/25 08:07:12;;;;;;;7.30;3.58;;;20.30;59.80;;;;;;5156783;27;20050;-80
2021/05/25 08:09:39;;;;;;;8.93;3.33;;;20.40;59.80;;;;;;5174537;27;20416;-82
2021/05/25 08:12:05;;;;;;;6.45;3.63;;;20.50;59.20;;;;;;5158175;27;20031;-80
2021/05/25 08:14:36;;;;;;;6.32;3.47;;;20.50;58.80;;;;;;5174271;27;20031;-80
2021/05/25 08:17:08;;;;;;;8.52;3.30;;;20.60;58.30;;;;;;5156821;27;20031;-80
2021/05/25 08:19:35;;;;;;;9.90;3.63;;;20.70;58.40;;;;;;5140606;27;20042;-80
2021/05/25 08:22:02;;;;;;;6.57;3.17;;;20.80;58.70;;;;;;5174186;27;20113;-80
2021/05/25 08:24:28;;;;;;;6.32;3.13;;;20.90;57.90;;;;;;5156664;27;20035;-81
2021/05/25 08:26:54;;;;;;;7.53;3.70;;;21.00;58.30;;;;;;5173954;27;20035;-81
2021/05/25 08:29:36;;;;;;;7.38;3.30;;;21.20;57.70;;;;;;5157896;27;20026;-80
2021/05/25 08:32:03;;;;;;;8.55;3.95;;;21.30;57.60;;;;;;5157873;27;20031;-81
2021/05/25 08:34:29;;;;;;;10.70;3.50;;;21.50;57.70;;;;;;5157989;27;20478;-81
2021/05/25 08:36:55;;;;;;;6.35;3.38;;;21.60;57.40;;;;;;5139031;27;20035;-81
2021/05/25 08:39:22;;;;;;;7.15;3.10;;;21.70;56.20;;;;;;5156293;27;20026;-81
2021/05/25 08:41:48;;;;;;;7.22;3.22;;;21.80;56.10;;;;;;5155640;27;20513;-80
2021/05/25 08:44:14;;;;;;;7.40;3.15;;;21.90;56.10;;;;;;5138606;27;20046;-81
2021/05/25 08:46:47;;;;;;;5.55;2.65;;;22.00;55.40;;;;;;5173694;27;20031;-79
2021/05/25 08:49:14;;;;;;;6.97;3.13;;;22.20;55.10;;;;;;5156072;27;20066;-80
2021/05/25 08:51:40;;;;;;;8.40;3.05;;;22.50;55.00;;;;;;5155990;27;20054;-79
2021/05/25 08:54:09;;;;;;;5.57;2.55;;;22.90;54.80;;;;;;5138557;27;20436;-80
2021/05/25 08:56:35;;;;;;;6.82;3.10;;;23.40;53.00;;;;;;5155932;27;20420;-80
2021/05/25 08:59:02;;;;;;;4.65;2.50;;;24.40;51.30;;;;;;5155680;27;20061;-81
2021/05/25 09:01:28;;;;;;;4.88;2.50;;;24.90;48.70;;;;;;5157330;27;20039;-80
2021/05/25 09:04:14;;;;;;;10.05;3.30;;;24.80;48.80;;;;;;5157014;27;20031;-81
2021/05/25 09:07:01;;;;;;;5.63;2.80;;;25.30;48.90;;;;;;5138688;27;20125;-81
2021/05/25 09:09:27;;;;;;;6.55;2.47;;;26.40;46.80;;;;;;5155666;27;20038;-81
2021/05/25 09:12:12;;;;;;;5.22;2.47;;;26.90;45.00;;;;;;5172838;27;20058;-80
2021/05/25 09:14:58;;;;;;;8.50;2.58;;;27.00;46.10;;;;;;5155133;27;20058;-80
2021/05/25 09:17:25;;;;;;;4.55;2.17;;;28.00;44.40;;;;;;5155498;27;20079;-80
2021/05/25 09:19:54;;;;;;;5.45;2.25;;;28.90;40.30;;;;;;5155515;27;20547;-81
2021/05/25 09:22:41;;;;;;;8.68;3.35;;;30.00;38.40;;;;;;5156526;27;20479;-77
2021/05/25 09:25:26;;;;;;;8.65;2.80;;;30.60;37.90;;;;;;5156760;27;20419;-81
2021/05/25 09:27:59;;;;;;;29.35;4.45;;;30.10;38.20;;;;;;5156442;27;20034;-81
2021/05/25 09:30:48;;;;;;;8.90;2.78;;;29.60;37.90;;;;;;5172643;27;20420;-82
2021/05/25 09:33:16;;;;;;;7.25;2.67;;;29.10;38.60;;;;;;5155036;27;20031;-82
2021/05/25 09:35:46;;;;;;;6.13;2.90;;;28.80;38.40;;;;;;5137818;27;20031;-82
2021/05/25 09:38:41;;;;;;;10.90;3.08;;;28.70;38.10;;;;;;5155339;27;20398;-81
2021/05/25 09:41:08;;;;;;;5.72;2.15;;;29.00;38.40;;;;;;5156332;27;20035;-82
2021/05/25 09:43:35;;;;;;;4.25;2.03;;;28.90;37.00;;;;;;5137570;27;20026;-81
2021/05/25 09:46:30;;;;;;;4.57;2.00;;;29.10;37.10;;;;;;5137811;27;20486;-78
2021/05/25 09:48:56;;;;;;;7.82;2.03;;;29.80;36.00;;;;;;5137463;27;20037;-80
2021/05/25 09:51:26;;;;;;;18.92;2.67;;;30.00;35.00;;;;;;5172171;27;20042;-81
2021/05/25 09:53:55;;;;;;;4.22;2.00;;;30.40;33.80;;;;;;5137322;27;20075;-80
2021/05/25 09:56:41;;;;;;;4.55;1.95;;;30.40;33.40;;;;;;5154716;27;20494;-81
2021/05/25 09:59:27;;;;;;;4.55;2.13;;;29.80;34.00;;;;;;5137298;27;20142;-82
2021/05/25 10:01:53;;;;;;;4.55;1.75;;;29.40;34.70;;;;;;5137426;27;20061;-82
2021/05/25 10:04:20;;;;;;;5.88;2.63;;;28.90;35.00;;;;;;5137449;27;20039;-81
2021/05/25 10:06:48;;;;;;;8.07;2.53;;;28.50;35.80;;;;;;5154507;27;20043;-81
2021/05/25 10:09:15;;;;;;;6.85;3.78;;;27.90;36.50;;;;;;5154560;27;20052;-81
2021/05/25 10:12:00;;;;;;;12.82;3.97;;;27.50;37.50;;;;;;5137298;27;20058;-81
2021/05/25 10:14:27;;;;;;;7.43;4.22;;;26.90;39.20;;;;;;5154767;27;20035;-81
2021/05/25 10:16:53;;;;;;;7.50;3.72;;;26.60;40.00;;;;;;5137439;27;20035;-81
2021/05/25 10:21:48;;;;;;;7.88;4.13;;;26.20;41.30;;;;;;5154677;27;20031;-81
2021/05/25 10:24:16;;;;;;;9.27;3.30;;;26.00;41.80;;;;;;5154530;27;20035;-82
2021/05/25 10:26:46;;;;;;;9.13;3.85;;;25.90;41.40;;;;;;5154778;27;20031;-84
2021/05/25 10:29:13;;;;;;;7.63;3.55;;;25.70;41.90;;;;;;5154518;27;20031;-84
2021/05/25 10:31:43;;;;;;;9.65;3.38;;;25.60;43.20;;;;;;5137167;27;20077;-81
2021/05/25 10:34:49;;;;;;;8.05;3.38;;;25.80;41.90;;;;;;5154569;27;20046;-83
2021/05/25 10:37:16;;;;;;;10.60;3.63;;;26.10;42.10;;;;;;5154161;27;20417;-81
2021/05/25 10:39:44;;;;;;;7.40;3.70;;;27.80;39.60;;;;;;5136612;27;20038;-80
2021/05/25 10:42:31;;;;;;;7.97;3.78;;;29.60;37.20;;;;;;5153779;27;20076;-80
2021/05/25 10:45:17;;;;;;;7.07;2.90;;;31.40;34.90;;;;;;5154015;27;20050;-81
2021/05/25 10:50:51;;;;;;;6.95;2.95;;;33.90;31.80;;;;;;5153973;27;20077;-80
2021/05/25 10:53:24;;;;;;;5.22;3.08;;;34.30;29.80;;;;;;5153607;27;20046;-80
2021/05/25 10:55:50;;;;;;;10.77;2.80;;;35.30;29.10;;;;;;5153928;27;20038;-82
2021/05/25 10:58:35;;;;;;;7.35;2.95;;;36.10;27.60;;;;;;5153625;27;20443;-80
2021/05/25 11:01:40;;;;;;;4.95;2.70;;;36.10;28.60;;;;;;5136286;27;20058;-81
2021/05/25 11:04:44;;;;;;;5.30;2.30;;;37.40;27.50;;;;;;5153495;27;20035;-81
2021/05/25 11:07:49;;;;;;;6.72;2.63;;;38.60;26.30;;;;;;5153213;27;20031;-83
2021/05/25 11:11:12;;;;;;;8.35;2.42;;;39.20;25.20;;;;;;5154986;27;20500;-82
2021/05/25 11:13:58;;;;;;;6.95;2.65;;;38.90;25.20;;;;;;5153401;27;20042;-81
2021/05/25 11:16:42;;;;;;;9.18;2.45;;;38.50;25.40;;;;;;5153654;27;20027;-83
2021/05/25 11:19:46;;;;;;;5.20;2.33;;;39.40;23.60;;;;;;5153268;27;20494;-81
2021/05/25 11:24:42;;;;;;;7.97;2.72;;;38.10;25.40;;;;;;5154738;27;20263;-82
2021/05/25 11:27:50;;;;;;;10.10;2.95;;;38.40;24.70;;;;;;5154327;27;20038;-80
2021/05/25 11:30:37;;;;;;;6.97;2.88;;;40.20;23.50;;;;;;5153414;27;20517;-82
2021/05/25 11:33:04;;;;;;;4.97;2.28;;;41.30;22.30;;;;;;5135952;27;20035;-81
2021/05/25 11:35:33;;;;;;;7.18;2.50;;;41.30;20.80;;;;;;5153091;27;20105;-80
2021/05/25 11:38:03;;;;;;;5.47;2.30;;;42.20;20.80;;;;;;5152945;27;20371;-81
2021/05/25 11:40:49;;;;;;;4.78;2.58;;;43.20;20.10;;;;;;5153069;27;20172;-81
2021/05/25 11:43:15;;;;;;;5.55;2.70;;;44.10;20.00;;;;;;5153123;27;20110;-81
2021/05/25 11:45:42;;;;;;;7.28;2.20;;;44.70;18.70;;;;;;5153381;27;20058;-81
2021/05/25 11:48:09;;;;;;;3.53;2.10;;;44.30;18.60;;;;;;5152793;27;20052;-81
2021/05/25 11:51:09;;;;;;;5.82;2.42;;;44.40;19.10;;;;;;5153424;27;20031;-83
2021/05/25 11:53:36;;;;;;;10.35;2.20;;;42.10;20.20;;;;;;5136032;27;20474;-82
2021/05/25 11:56:04;;;;;;;5.20;1.98;;;40.20;21.00;;;;;;5136065;27;20046;-81
2021/05/25 11:58:30;;;;;;;6.40;2.30;;;38.60;21.90;;;;;;5153410;27;20034;-84
2021/05/25 12:00:57;;;;;;;6.68;1.80;;;37.60;23.50;;;;;;5153195;27;20049;-83
2021/05/25 12:03:23;;;;;;;5.18;2.00;;;36.80;24.10;;;;;;5152851;27;20033;-83
2021/05/25 12:05:50;;;;;;;7.72;2.38;;;36.10;25.00;;;;;;5152566;27;20031;-81
2021/05/25 12:08:16;;;;;;;5.03;2.00;;;37.70;23.50;;;;;;5152575;27;20051;-82
2021/05/25 12:10:43;;;;;;;3.42;1.80;;;38.20;23.10;;;;;;5154364;27;20039;-82
2021/05/25 12:13:32;;;;;;;5.05;2.10;;;36.80;23.00;;;;;;5152879;27;20027;-83
2021/05/25 12:15:58;;;;;;;3.67;1.77;;;35.20;24.90;;;;;;5135988;27;20031;-82
2021/05/25 12:18:25;;;;;;;3.92;1.80;;;34.90;25.70;;;;;;5137924;27;20100;-82
2021/05/25 12:20:55;;;;;;;4.80;2.22;;;35.10;25.50;;;;;;5174242;27;20039;-81
2021/05/25 12:23:44;;;;;;;6.03;2.20;;;34.00;26.80;;;;;;5157066;27;20481;-84
2021/05/25 12:26:11;;;;;;;4.30;2.15;;;32.70;28.00;;;;;;5156641;27;20038;-84
2021/05/25 12:28:39;;;;;;;6.38;2.42;;;31.80;29.30;;;;;;5139662;27;20030;-83
2021/05/25 12:31:07;;;;;;;7.07;2.47;;;30.90;30.20;;;;;;5139431;27;20031;-82
2021/05/25 12:33:37;;;;;;;8.55;4.40;;;30.10;31.60;;;;;;5139723;27;20047;-83
2021/05/25 12:36:59;;;;;;;8.75;4.68;;;29.30;32.80;;;;;;5139474;27;20033;-82
2021/05/25 12:39:44;;;;;;;13.18;5.72;;;28.40;34.20;;;;;;5157973;27;20067;-83
2021/05/25 12:42:53;;;;;;;12.98;6.15;;;27.60;35.70;;;;;;5174167;27;20550;-82
2021/05/25 12:45:20;;;;;;;13.93;6.43;;;27.00;36.90;;;;;;5156863;27;20031;-83
2021/05/25 12:48:05;;;;;;;11.52;6.40;;;26.50;37.80;;;;;;5139373;27;20129;-83
2021/05/25 12:50:38;;;;;;;9.70;6.43;;;26.30;38.20;;;;;;5156691;27;20054;-80
2021/05/25 12:53:05;;;;;;;12.35;6.78;;;26.20;38.90;;;;;;5156440;27;20034;-82
2021/05/25 12:55:34;;;;;;;10.13;6.38;;;25.90;39.20;;;;;;5156363;27;20045;-81
2021/05/25 12:58:01;;;;;;;9.73;6.03;;;25.70;39.60;;;;;;5157404;27;20027;-82
2021/05/25 13:00:53;;;;;;;12.85;7.13;;;25.70;40.00;;;;;;5157446;27;20117;-81
2021/05/25 13:03:45;;;;;;;13.23;7.35;;;25.50;40.10;;;;;;5139112;27;20034;-81
2021/05/25 13:06:39;;;;;;;13.15;5.50;;;25.40;41.10;;;;;;5156152;27;20034;-82
2021/05/25 13:09:51;;;;;;;10.43;4.63;;;25.00;42.10;;;;;;5173509;27;20062;-82
2021/05/25 13:12:17;;;;;;;8.52;4.65;;;24.60;42.90;;;;;;5155934;27;20042;-86
2021/05/25 13:14:44;;;;;;;8.50;3.75;;;24.30;44.80;;;;;;5157493;27;20033;-80
2021/05/25 13:17:13;;;;;;;7.13;3.58;;;24.20;44.10;;;;;;5138804;27;20034;-83
2021/05/25 13:19:43;;;;;;;8.07;3.08;;;23.90;43.50;;;;;;5138897;27;20069;-83
2021/05/25 13:22:29;;;;;;;7.22;2.45;;;24.30;42.90;;;;;;5156151;27;20042;-81